sensor_id;sensor_type;location;lat;lon;timestamp;temperature;humidity
22633;DHT22;11483;55.828;37.488;2023-12-20T00:01:51;4.70;99.90
22633;DHT22;11483;55.828;37.488;2023-12-20T00:04:17;4.70;99.90
22633;DHT22;11483;55.828;37.488;2023-12-20T00:06:43;4.70;99.90
22633;DHT22;11483;55.828;37.488;2023-12-20T00:09:08;4.60;99.90
22633;DHT22;11483;55.828;37.488;2023-12-20T00:11:34;4.60;99.90
22633;DHT22;11483;55.828;37.488;2023-12-20T00:14:00;4.50;99.90
22633;DHT22;11483;55.828;37.488;2023-12-20T00:16:26;3.90;99.90
22633;DHT22;11483;55.828;37.488;2023-12-20T00:18:52;4.60;99.90
22633;DHT22;11483;55.828;37.488;2023-12-20T00:21:18;4.60;99.90
22633;DHT22;11483;55.828;37.488;2023-12-20T00:23:44;4.60;99.90
22633;DHT22;11483;55.828;37.488;2023-12-20T00:26:10;4.60;99.90
22633;DHT22;11483;55.828;37.488;2023-12-20T00:28:35;4.60;99.90
22633;DHT22;11483;55.828;37.488;2023-12-20T00:31:01;4.60;99.90
22633;DHT22;11483;55.828;37.488;2023-12-20T00:33:27;4.50;99.90
22633;DHT22;11483;55.828;37.488;2023-12-20T00:35:53;4.50;99.90
22633;DHT22;11483;55.828;37.488;2023-12-20T00:38:19;4.60;99.90
22633;DHT22;11483;55.828;37.488;2023-12-20T00:40:45;4.60;99.90
22633;DHT22;11483;55.828;37.488;2023-12-20T00:43:11;4.60;99.90
22633;DHT22;11483;55.828;37.488;2023-12-20T00:45:38;4.60;99.90
22633;DHT22;11483;55.828;37.488;2023-12-20T00:48:05;4.60;99.90
22633;DHT22;11483;55.828;37.488;2023-12-20T00:50:31;4.60;99.90
22633;DHT22;11483;55.828;37.488;2023-12-20T00:52:57;4.60;99.90
22633;DHT22;11483;55.828;37.488;2023-12-20T00:55:23;4.60;99.90
22633;DHT22;11483;55.828;37.488;2023-12-20T00:57:48;4.60;99.90
22633;DHT22;11483;55.828;37.488;2023-12-20T01:00:14;4.60;99.90
22633;DHT22;11483;55.828;37.488;2023-12-20T01:02:40;4.60;99.90
22633;DHT22;11483;55.828;37.488;2023-12-20T01:05:06;4.50;99.90
22633;DHT22;11483;55.828;37.488;2023-12-20T01:07:35;4.50;99.90
22633;DHT22;11483;55.828;37.488;2023-12-20T01:10:01;4.40;99.90
22633;DHT22;11483;55.828;37.488;2023-12-20T01:12:30;4.40;99.90
22633;DHT22;11483;55.828;37.488;2023-12-20T01:14:56;4.30;99.90
22633;DHT22;11483;55.828;37.488;2023-12-20T01:17:22;4.30;99.90
22633;DHT22;11483;55.828;37.488;2023-12-20T01:19:47;4.30;99.90
22633;DHT22;11483;55.828;37.488;2023-12-20T01:22:13;4.30;99.90
22633;DHT22;11483;55.828;37.488;2023-12-20T01:24:39;4.20;99.90
22633;DHT22;11483;55.828;37.488;2023-12-20T01:27:05;4.20;99.90
22633;DHT22;11483;55.828;37.488;2023-12-20T01:29:31;4.20;99.90
22633;DHT22;11483;55.828;37.488;2023-12-20T01:31:57;4.20;99.90
22633;DHT22;11483;55.828;37.488;2023-12-20T01:34:22;4.20;99.90
22633;DHT22;11483;55.828;37.488;2023-12-20T01:36:48;4.20;99.90
22633;DHT22;11483;55.828;37.488;2023-12-20T01:39:14;4.30;99.90
22633;DHT22;11483;55.828;37.488;2023-12-20T01:41:40;4.30;99.90
22633;DHT22;11483;55.828;37.488;2023-12-20T01:44:06;4.30;99.90
22633;DHT22;11483;55.828;37.488;2023-12-20T01:46:32;4.30;99.90
22633;DHT22;11483;55.828;37.488;2023-12-20T01:48:58;4.30;99.90
22633;DHT22;11483;55.828;37.488;2023-12-20T01:51:25;4.30;99.90
22633;DHT22;11483;55.828;37.488;2023-12-20T01:53:55;4.30;99.90
22633;DHT22;11483;55.828;37.488;2023-12-20T01:56:23;4.30;99.90
22633;DHT22;11483;55.828;37.488;2023-12-20T01:58:49;4.30;99.90
22633;DHT22;11483;55.828;37.488;2023-12-20T02:01:15;4.20;99.90
22633;DHT22;11483;55.828;37.488;2023-12-20T02:03:42;4.20;99.90
22633;DHT22;11483;55.828;37.488;2023-12-20T02:06:08;4.20;99.90
22633;DHT22;11483;55.828;37.488;2023-12-20T02:08:35;4.30;99.90
22633;DHT22;11483;55.828;37.488;2023-12-20T02:11:01;4.30;99.90
22633;DHT22;11483;55.828;37.488;2023-12-20T02:13:27;4.40;99.90
22633;DHT22;11483;55.828;37.488;2023-12-20T02:15:54;4.40;99.90
22633;DHT22;11483;55.828;37.488;2023-12-20T02:18:20;4.40;99.90
22633;DHT22;11483;55.828;37.488;2023-12-20T02:20:46;4.40;99.90
22633;DHT22;11483;55.828;37.488;2023-12-20T02:23:12;4.40;99.90
22633;DHT22;11483;55.828;37.488;2023-12-20T02:25:38;4.30;99.90
22633;DHT22;11483;55.828;37.488;2023-12-20T02:28:05;4.30;99.90
22633;DHT22;11483;55.828;37.488;2023-12-20T02:30:31;4.30;99.90
22633;DHT22;11483;55.828;37.488;2023-12-20T02:32:57;4.30;99.90
22633;DHT22;11483;55.828;37.488;2023-12-20T02:35:25;4.40;99.90
22633;DHT22;11483;55.828;37.488;2023-12-20T02:37:51;4.40;99.90
22633;DHT22;11483;55.828;37.488;2023-12-20T02:40:17;4.40;99.90
22633;DHT22;11483;55.828;37.488;2023-12-20T02:42:43;4.40;99.90
22633;DHT22;11483;55.828;37.488;2023-12-20T02:45:09;4.40;99.90
22633;DHT22;11483;55.828;37.488;2023-12-20T02:47:35;4.40;99.90
22633;DHT22;11483;55.828;37.488;2023-12-20T02:50:01;4.50;99.90
22633;DHT22;11483;55.828;37.488;2023-12-20T02:52:28;4.40;99.90
22633;DHT22;11483;55.828;37.488;2023-12-20T02:54:54;4.40;99.90
22633;DHT22;11483;55.828;37.488;2023-12-20T02:57:20;4.40;99.90
22633;DHT22;11483;55.828;37.488;2023-12-20T02:59:46;4.50;99.90
22633;DHT22;11483;55.828;37.488;2023-12-20T03:02:12;4.50;99.90
22633;DHT22;11483;55.828;37.488;2023-12-20T03:04:38;4.50;99.90
22633;DHT22;11483;55.828;37.488;2023-12-20T03:07:04;4.50;99.90
22633;DHT22;11483;55.828;37.488;2023-12-20T03:09:29;4.50;99.90
22633;DHT22;11483;55.828;37.488;2023-12-20T03:11:55;4.50;99.90
22633;DHT22;11483;55.828;37.488;2023-12-20T03:14:21;4.50;99.90
22633;DHT22;11483;55.828;37.488;2023-12-20T03:16:49;4.60;99.90
22633;DHT22;11483;55.828;37.488;2023-12-20T03:19:16;4.50;99.90
22633;DHT22;11483;55.828;37.488;2023-12-20T03:21:41;4.50;99.90
22633;DHT22;11483;55.828;37.488;2023-12-20T03:24:07;4.50;99.90
22633;DHT22;11483;55.828;37.488;2023-12-20T03:26:33;4.50;99.90
22633;DHT22;11483;55.828;37.488;2023-12-20T03:28:59;4.40;99.90
22633;DHT22;11483;55.828;37.488;2023-12-20T03:31:25;4.40;99.90
22633;DHT22;11483;55.828;37.488;2023-12-20T03:33:51;4.40;99.90
22633;DHT22;11483;55.828;37.488;2023-12-20T03:36:19;4.30;99.90
22633;DHT22;11483;55.828;37.488;2023-12-20T03:38:45;4.20;99.90
22633;DHT22;11483;55.828;37.488;2023-12-20T03:41:11;4.20;99.90
22633;DHT22;11483;55.828;37.488;2023-12-20T03:43:37;4.10;99.90
22633;DHT22;11483;55.828;37.488;2023-12-20T03:46:03;4.10;99.90
22633;DHT22;11483;55.828;37.488;2023-12-20T03:48:30;4.20;99.90
22633;DHT22;11483;55.828;37.488;2023-12-20T03:50:57;4.20;99.90
22633;DHT22;11483;55.828;37.488;2023-12-20T03:53:23;4.20;99.90
22633;DHT22;11483;55.828;37.488;2023-12-20T03:55:49;4.20;99.90
22633;DHT22;11483;55.828;37.488;2023-12-20T03:58:14;4.20;99.90
22633;DHT22;11483;55.828;37.488;2023-12-20T04:00:40;4.20;99.90
22633;DHT22;11483;55.828;37.488;2023-12-20T04:03:07;4.30;99.90
22633;DHT22;11483;55.828;37.488;2023-12-20T04:05:33;4.30;99.90
22633;DHT22;11483;55.828;37.488;2023-12-20T04:08:01;4.30;99.90
22633;DHT22;11483;55.828;37.488;2023-12-20T04:10:27;4.40;99.90
22633;DHT22;11483;55.828;37.488;2023-12-20T04:12:53;4.40;99.90
22633;DHT22;11483;55.828;37.488;2023-12-20T04:15:20;4.40;99.90
22633;DHT22;11483;55.828;37.488;2023-12-20T04:17:46;4.40;99.90
22633;DHT22;11483;55.828;37.488;2023-12-20T04:20:12;4.40;99.90
22633;DHT22;11483;55.828;37.488;2023-12-20T04:22:38;4.50;99.90
22633;DHT22;11483;55.828;37.488;2023-12-20T04:25:04;4.50;99.90
22633;DHT22;11483;55.828;37.488;2023-12-20T04:27:29;4.50;99.90
22633;DHT22;11483;55.828;37.488;2023-12-20T04:29:55;4.50;99.90
22633;DHT22;11483;55.828;37.488;2023-12-20T04:32:21;4.50;99.90
22633;DHT22;11483;55.828;37.488;2023-12-20T04:34:47;4.50;99.90
22633;DHT22;11483;55.828;37.488;2023-12-20T04:37:13;4.40;99.90
22633;DHT22;11483;55.828;37.488;2023-12-20T04:39:39;4.40;99.90
22633;DHT22;11483;55.828;37.488;2023-12-20T04:42:07;4.40;99.90
22633;DHT22;11483;55.828;37.488;2023-12-20T04:44:33;4.50;99.90
22633;DHT22;11483;55.828;37.488;2023-12-20T04:46:58;4.50;99.90
22633;DHT22;11483;55.828;37.488;2023-12-20T04:49:25;4.40;99.90
22633;DHT22;11483;55.828;37.488;2023-12-20T04:51:51;4.40;99.90
22633;DHT22;11483;55.828;37.488;2023-12-20T04:54:17;4.40;99.90
22633;DHT22;11483;55.828;37.488;2023-12-20T04:56:43;4.50;99.90
22633;DHT22;11483;55.828;37.488;2023-12-20T04:59:08;4.50;99.90
22633;DHT22;11483;55.828;37.488;2023-12-20T05:01:34;4.50;99.90
22633;DHT22;11483;55.828;37.488;2023-12-20T05:04:00;4.50;99.90
22633;DHT22;11483;55.828;37.488;2023-12-20T05:06:26;4.50;99.90
22633;DHT22;11483;55.828;37.488;2023-12-20T05:08:52;4.50;99.90
22633;DHT22;11483;55.828;37.488;2023-12-20T05:11:17;4.50;99.90
22633;DHT22;11483;55.828;37.488;2023-12-20T05:13:43;4.50;99.90
22633;DHT22;11483;55.828;37.488;2023-12-20T05:16:09;4.50;99.90
22633;DHT22;11483;55.828;37.488;2023-12-20T05:18:35;4.50;99.90
22633;DHT22;11483;55.828;37.488;2023-12-20T05:21:01;4.50;99.90
22633;DHT22;11483;55.828;37.488;2023-12-20T05:23:27;4.50;99.90
22633;DHT22;11483;55.828;37.488;2023-12-20T05:25:53;4.50;99.90
22633;DHT22;11483;55.828;37.488;2023-12-20T05:28:19;4.50;99.90
22633;DHT22;11483;55.828;37.488;2023-12-20T05:30:45;4.50;99.90
22633;DHT22;11483;55.828;37.488;2023-12-20T05:33:10;4.60;99.90
22633;DHT22;11483;55.828;37.488;2023-12-20T05:35:36;4.60;99.90
22633;DHT22;11483;55.828;37.488;2023-12-20T05:38:02;4.60;99.90
22633;DHT22;11483;55.828;37.488;2023-12-20T05:40:28;4.60;99.90
22633;DHT22;11483;55.828;37.488;2023-12-20T05:42:54;4.50;99.90
22633;DHT22;11483;55.828;37.488;2023-12-20T05:45:20;4.50;99.90
22633;DHT22;11483;55.828;37.488;2023-12-20T05:47:46;4.40;99.90
22633;DHT22;11483;55.828;37.488;2023-12-20T05:50:12;4.40;99.90
22633;DHT22;11483;55.828;37.488;2023-12-20T05:52:37;4.40;99.90
22633;DHT22;11483;55.828;37.488;2023-12-20T05:55:04;4.40;99.90
22633;DHT22;11483;55.828;37.488;2023-12-20T05:57:30;4.40;99.90
22633;DHT22;11483;55.828;37.488;2023-12-20T05:59:56;4.40;99.90
22633;DHT22;11483;55.828;37.488;2023-12-20T06:02:22;4.40;99.90
22633;DHT22;11483;55.828;37.488;2023-12-20T06:04:48;4.50;99.90
22633;DHT22;11483;55.828;37.488;2023-12-20T06:07:14;4.40;99.90
22633;DHT22;11483;55.828;37.488;2023-12-20T06:09:41;4.40;99.90
22633;DHT22;11483;55.828;37.488;2023-12-20T06:12:07;4.40;99.90
22633;DHT22;11483;55.828;37.488;2023-12-20T06:14:36;4.40;99.90
22633;DHT22;11483;55.828;37.488;2023-12-20T06:17:02;4.40;99.90
22633;DHT22;11483;55.828;37.488;2023-12-20T06:19:28;4.40;99.90
22633;DHT22;11483;55.828;37.488;2023-12-20T06:21:54;4.40;99.90
22633;DHT22;11483;55.828;37.488;2023-12-20T06:24:20;4.40;99.90
22633;DHT22;11483;55.828;37.488;2023-12-20T06:26:47;4.50;99.90
22633;DHT22;11483;55.828;37.488;2023-12-20T06:29:13;4.50;99.90
22633;DHT22;11483;55.828;37.488;2023-12-20T06:31:39;4.50;99.90
22633;DHT22;11483;55.828;37.488;2023-12-20T06:34:05;4.60;99.90
22633;DHT22;11483;55.828;37.488;2023-12-20T06:36:30;4.50;99.90
22633;DHT22;11483;55.828;37.488;2023-12-20T06:38:56;4.60;99.90
22633;DHT22;11483;55.828;37.488;2023-12-20T06:41:23;4.60;99.90
22633;DHT22;11483;55.828;37.488;2023-12-20T06:43:50;4.60;99.90
22633;DHT22;11483;55.828;37.488;2023-12-20T06:46:18;4.60;99.90
22633;DHT22;11483;55.828;37.488;2023-12-20T06:48:44;4.70;99.90
22633;DHT22;11483;55.828;37.488;2023-12-20T06:51:15;4.60;99.90
22633;DHT22;11483;55.828;37.488;2023-12-20T06:53:41;4.60;99.90
22633;DHT22;11483;55.828;37.488;2023-12-20T06:56:08;4.70;99.90
22633;DHT22;11483;55.828;37.488;2023-12-20T06:58:34;4.70;99.90
22633;DHT22;11483;55.828;37.488;2023-12-20T07:01:02;4.70;99.90
22633;DHT22;11483;55.828;37.488;2023-12-20T07:03:28;4.80;99.90
22633;DHT22;11483;55.828;37.488;2023-12-20T07:05:54;4.80;99.90
22633;DHT22;11483;55.828;37.488;2023-12-20T07:08:20;4.80;99.90
22633;DHT22;11483;55.828;37.488;2023-12-20T07:10:46;4.80;99.90
22633;DHT22;11483;55.828;37.488;2023-12-20T07:13:12;4.80;99.90
22633;DHT22;11483;55.828;37.488;2023-12-20T07:15:38;4.80;99.90
22633;DHT22;11483;55.828;37.488;2023-12-20T07:18:04;4.80;99.90
22633;DHT22;11483;55.828;37.488;2023-12-20T07:20:32;4.80;99.90
22633;DHT22;11483;55.828;37.488;2023-12-20T07:22:58;4.80;99.90
22633;DHT22;11483;55.828;37.488;2023-12-20T07:25:23;4.90;99.90
22633;DHT22;11483;55.828;37.488;2023-12-20T07:27:49;4.90;99.90
22633;DHT22;11483;55.828;37.488;2023-12-20T07:30:15;4.90;99.90
22633;DHT22;11483;55.828;37.488;2023-12-20T07:32:41;4.90;99.90
22633;DHT22;11483;55.828;37.488;2023-12-20T07:35:07;5.00;99.90
22633;DHT22;11483;55.828;37.488;2023-12-20T07:37:33;5.00;99.90
22633;DHT22;11483;55.828;37.488;2023-12-20T07:39:59;5.10;99.90
22633;DHT22;11483;55.828;37.488;2023-12-20T07:42:25;5.00;99.90
22633;DHT22;11483;55.828;37.488;2023-12-20T07:44:51;5.00;99.90
22633;DHT22;11483;55.828;37.488;2023-12-20T07:47:17;4.90;99.90
22633;DHT22;11483;55.828;37.488;2023-12-20T07:49:50;4.90;99.90
22633;DHT22;11483;55.828;37.488;2023-12-20T07:52:17;5.00;99.90
22633;DHT22;11483;55.828;37.488;2023-12-20T07:54:44;5.00;99.90
22633;DHT22;11483;55.828;37.488;2023-12-20T07:57:11;5.00;99.90
22633;DHT22;11483;55.828;37.488;2023-12-20T07:59:37;5.10;99.90
22633;DHT22;11483;55.828;37.488;2023-12-20T08:02:03;5.10;99.90
22633;DHT22;11483;55.828;37.488;2023-12-20T08:04:29;5.20;99.90
22633;DHT22;11483;55.828;37.488;2023-12-20T08:06:55;5.40;99.90
22633;DHT22;11483;55.828;37.488;2023-12-20T08:09:21;5.40;99.90
22633;DHT22;11483;55.828;37.488;2023-12-20T08:11:48;5.40;99.90
22633;DHT22;11483;55.828;37.488;2023-12-20T08:14:14;5.40;99.90
22633;DHT22;11483;55.828;37.488;2023-12-20T08:16:40;5.50;99.90
22633;DHT22;11483;55.828;37.488;2023-12-20T08:19:06;5.50;99.90
22633;DHT22;11483;55.828;37.488;2023-12-20T08:21:32;5.50;99.90
22633;DHT22;11483;55.828;37.488;2023-12-20T08:23:57;5.50;99.90
22633;DHT22;11483;55.828;37.488;2023-12-20T08:26:23;5.50;99.90
22633;DHT22;11483;55.828;37.488;2023-12-20T08:28:50;5.50;99.90
22633;DHT22;11483;55.828;37.488;2023-12-20T08:31:17;5.40;99.90
22633;DHT22;11483;55.828;37.488;2023-12-20T08:33:47;5.40;99.90
22633;DHT22;11483;55.828;37.488;2023-12-20T08:36:14;5.40;99.90
22633;DHT22;11483;55.828;37.488;2023-12-20T08:38:40;5.40;99.90
22633;DHT22;11483;55.828;37.488;2023-12-20T08:41:06;5.50;99.90
22633;DHT22;11483;55.828;37.488;2023-12-20T08:43:34;5.50;99.90
22633;DHT22;11483;55.828;37.488;2023-12-20T08:46:01;5.50;99.90
22633;DHT22;11483;55.828;37.488;2023-12-20T08:48:27;5.50;99.90
22633;DHT22;11483;55.828;37.488;2023-12-20T08:50:53;5.60;99.90
22633;DHT22;11483;55.828;37.488;2023-12-20T08:53:19;5.60;99.90
22633;DHT22;11483;55.828;37.488;2023-12-20T08:55:46;5.60;99.90
22633;DHT22;11483;55.828;37.488;2023-12-20T08:58:12;5.60;99.90
22633;DHT22;11483;55.828;37.488;2023-12-20T09:00:38;5.50;99.90
22633;DHT22;11483;55.828;37.488;2023-12-20T09:03:04;5.50;99.90
22633;DHT22;11483;55.828;37.488;2023-12-20T09:05:30;5.40;99.90
22633;DHT22;11483;55.828;37.488;2023-12-20T09:07:56;5.40;99.90
22633;DHT22;11483;55.828;37.488;2023-12-20T09:10:22;5.40;99.90
22633;DHT22;11483;55.828;37.488;2023-12-20T09:12:52;5.40;99.90
22633;DHT22;11483;55.828;37.488;2023-12-20T09:15:26;5.40;99.90
22633;DHT22;11483;55.828;37.488;2023-12-20T09:17:53;5.40;99.90
22633;DHT22;11483;55.828;37.488;2023-12-20T09:20:19;5.40;99.90
22633;DHT22;11483;55.828;37.488;2023-12-20T09:22:45;5.40;99.90
22633;DHT22;11483;55.828;37.488;2023-12-20T09:25:11;5.40;99.90
22633;DHT22;11483;55.828;37.488;2023-12-20T09:27:38;5.40;99.90
22633;DHT22;11483;55.828;37.488;2023-12-20T09:30:06;5.40;99.90
22633;DHT22;11483;55.828;37.488;2023-12-20T09:32:32;5.40;99.90
22633;DHT22;11483;55.828;37.488;2023-12-20T09:34:58;5.40;99.90
22633;DHT22;11483;55.828;37.488;2023-12-20T09:37:27;5.30;99.90
22633;DHT22;11483;55.828;37.488;2023-12-20T09:39:53;5.30;99.90
22633;DHT22;11483;55.828;37.488;2023-12-20T09:42:42;5.30;99.90
22633;DHT22;11483;55.828;37.488;2023-12-20T09:45:14;5.30;99.90
22633;DHT22;11483;55.828;37.488;2023-12-20T09:47:43;5.30;99.90
22633;DHT22;11483;55.828;37.488;2023-12-20T09:50:09;5.30;99.90
22633;DHT22;11483;55.828;37.488;2023-12-20T09:52:36;5.30;99.90
22633;DHT22;11483;55.828;37.488;2023-12-20T09:55:05;5.30;99.90
22633;DHT22;11483;55.828;37.488;2023-12-20T09:57:33;5.30;99.90
22633;DHT22;11483;55.828;37.488;2023-12-20T09:59:59;5.30;99.90
22633;DHT22;11483;55.828;37.488;2023-12-20T10:02:29;5.20;99.90
22633;DHT22;11483;55.828;37.488;2023-12-20T10:04:57;5.30;99.90
22633;DHT22;11483;55.828;37.488;2023-12-20T10:07:24;5.20;99.90
22633;DHT22;11483;55.828;37.488;2023-12-20T10:09:54;5.20;99.90
22633;DHT22;11483;55.828;37.488;2023-12-20T10:12:21;5.20;99.90
22633;DHT22;11483;55.828;37.488;2023-12-20T10:14:47;5.20;99.90
22633;DHT22;11483;55.828;37.488;2023-12-20T10:17:13;5.20;99.90
22633;DHT22;11483;55.828;37.488;2023-12-20T10:19:39;5.30;99.90
22633;DHT22;11483;55.828;37.488;2023-12-20T10:22:05;5.30;99.90
22633;DHT22;11483;55.828;37.488;2023-12-20T10:24:31;5.30;99.90
22633;DHT22;11483;55.828;37.488;2023-12-20T10:27:04;5.30;99.90
22633;DHT22;11483;55.828;37.488;2023-12-20T10:29:37;5.30;99.90
22633;DHT22;11483;55.828;37.488;2023-12-20T10:32:27;5.30;99.90
22633;DHT22;11483;55.828;37.488;2023-12-20T10:34:56;5.30;99.90
22633;DHT22;11483;55.828;37.488;2023-12-20T10:37:22;5.40;99.90
22633;DHT22;11483;55.828;37.488;2023-12-20T10:39:53;5.30;99.90
22633;DHT22;11483;55.828;37.488;2023-12-20T10:42:26;5.30;99.90
22633;DHT22;11483;55.828;37.488;2023-12-20T10:44:53;5.40;99.90
22633;DHT22;11483;55.828;37.488;2023-12-20T10:47:20;5.40;99.90
22633;DHT22;11483;55.828;37.488;2023-12-20T10:49:46;5.40;99.90
22633;DHT22;11483;55.828;37.488;2023-12-20T10:52:13;5.30;99.90
22633;DHT22;11483;55.828;37.488;2023-12-20T10:54:40;5.40;99.90
22633;DHT22;11483;55.828;37.488;2023-12-20T10:57:07;5.40;99.90
22633;DHT22;11483;55.828;37.488;2023-12-20T10:59:39;5.30;99.90
22633;DHT22;11483;55.828;37.488;2023-12-20T11:02:05;5.30;99.90
22633;DHT22;11483;55.828;37.488;2023-12-20T11:04:50;5.30;99.90
22633;DHT22;11483;55.828;37.488;2023-12-20T11:07:35;5.30;99.90
22633;DHT22;11483;55.828;37.488;2023-12-20T11:10:25;5.30;99.90
22633;DHT22;11483;55.828;37.488;2023-12-20T11:13:05;5.40;99.90
22633;DHT22;11483;55.828;37.488;2023-12-20T11:15:38;5.50;99.90
22633;DHT22;11483;55.828;37.488;2023-12-20T11:18:05;5.50;99.90
22633;DHT22;11483;55.828;37.488;2023-12-20T11:20:40;5.50;99.90
22633;DHT22;11483;55.828;37.488;2023-12-20T11:23:06;5.50;99.90
22633;DHT22;11483;55.828;37.488;2023-12-20T11:26:05;5.50;99.90
22633;DHT22;11483;55.828;37.488;2023-12-20T11:28:32;5.50;99.90
22633;DHT22;11483;55.828;37.488;2023-12-20T11:31:00;5.50;99.90
22633;DHT22;11483;55.828;37.488;2023-12-20T11:33:29;5.40;99.90
22633;DHT22;11483;55.828;37.488;2023-12-20T11:35:56;5.40;99.90
22633;DHT22;11483;55.828;37.488;2023-12-20T11:38:22;5.40;99.90
22633;DHT22;11483;55.828;37.488;2023-12-20T11:40:54;5.40;99.90
22633;DHT22;11483;55.828;37.488;2023-12-20T11:43:34;5.40;99.90
22633;DHT22;11483;55.828;37.488;2023-12-20T11:46:08;5.40;99.90
22633;DHT22;11483;55.828;37.488;2023-12-20T11:48:38;5.50;99.90
22633;DHT22;11483;55.828;37.488;2023-12-20T11:51:12;5.40;99.90
22633;DHT22;11483;55.828;37.488;2023-12-20T11:53:39;5.40;99.90
22633;DHT22;11483;55.828;37.488;2023-12-20T11:56:06;5.40;99.90
22633;DHT22;11483;55.828;37.488;2023-12-20T11:58:36;5.40;99.90
22633;DHT22;11483;55.828;37.488;2023-12-20T12:01:02;5.40;99.90
22633;DHT22;11483;55.828;37.488;2023-12-20T12:03:28;5.40;99.90
22633;DHT22;11483;55.828;37.488;2023-12-20T12:05:54;5.30;99.90
22633;DHT22;11483;55.828;37.488;2023-12-20T12:08:20;5.30;99.90
22633;DHT22;11483;55.828;37.488;2023-12-20T12:10:45;5.20;99.90
22633;DHT22;11483;55.828;37.488;2023-12-20T12:13:12;5.20;99.90
22633;DHT22;11483;55.828;37.488;2023-12-20T12:15:40;5.20;99.90
22633;DHT22;11483;55.828;37.488;2023-12-20T12:18:07;5.10;99.90
22633;DHT22;11483;55.828;37.488;2023-12-20T12:20:33;5.10;99.90
22633;DHT22;11483;55.828;37.488;2023-12-20T12:23:02;5.10;99.90
22633;DHT22;11483;55.828;37.488;2023-12-20T12:25:33;5.00;99.90
22633;DHT22;11483;55.828;37.488;2023-12-20T12:28:01;4.90;99.90
22633;DHT22;11483;55.828;37.488;2023-12-20T12:30:27;4.80;99.90
22633;DHT22;11483;55.828;37.488;2023-12-20T12:32:55;4.80;99.90
22633;DHT22;11483;55.828;37.488;2023-12-20T12:35:21;4.80;99.90
22633;DHT22;11483;55.828;37.488;2023-12-20T12:37:47;4.80;99.90
22633;DHT22;11483;55.828;37.488;2023-12-20T12:40:15;4.80;99.90
22633;DHT22;11483;55.828;37.488;2023-12-20T12:42:43;4.80;99.90
22633;DHT22;11483;55.828;37.488;2023-12-20T12:45:09;4.80;99.90
22633;DHT22;11483;55.828;37.488;2023-12-20T12:47:37;4.70;99.90
22633;DHT22;11483;55.828;37.488;2023-12-20T12:50:04;4.70;99.90
22633;DHT22;11483;55.828;37.488;2023-12-20T12:52:33;4.70;99.90
22633;DHT22;11483;55.828;37.488;2023-12-20T12:54:59;4.70;99.90
22633;DHT22;11483;55.828;37.488;2023-12-20T12:57:25;4.70;99.90
22633;DHT22;11483;55.828;37.488;2023-12-20T12:59:50;4.70;99.90
22633;DHT22;11483;55.828;37.488;2023-12-20T13:02:16;4.70;99.90
22633;DHT22;11483;55.828;37.488;2023-12-20T13:04:43;4.60;99.90
22633;DHT22;11483;55.828;37.488;2023-12-20T13:07:09;4.60;99.90
22633;DHT22;11483;55.828;37.488;2023-12-20T13:09:39;4.60;99.90
22633;DHT22;11483;55.828;37.488;2023-12-20T13:12:06;4.60;99.90
22633;DHT22;11483;55.828;37.488;2023-12-20T13:14:34;4.50;99.90
22633;DHT22;11483;55.828;37.488;2023-12-20T13:17:02;4.50;99.90
22633;DHT22;11483;55.828;37.488;2023-12-20T13:19:29;4.50;99.90
22633;DHT22;11483;55.828;37.488;2023-12-20T13:21:56;4.50;99.90
22633;DHT22;11483;55.828;37.488;2023-12-20T13:24:21;4.40;99.90
22633;DHT22;11483;55.828;37.488;2023-12-20T13:26:47;4.40;99.90
22633;DHT22;11483;55.828;37.488;2023-12-20T13:29:13;4.40;99.90
22633;DHT22;11483;55.828;37.488;2023-12-20T13:31:39;4.30;99.90
22633;DHT22;11483;55.828;37.488;2023-12-20T13:34:06;4.40;99.90
22633;DHT22;11483;55.828;37.488;2023-12-20T13:36:33;4.30;99.90
22633;DHT22;11483;55.828;37.488;2023-12-20T13:38:59;4.30;99.90
22633;DHT22;11483;55.828;37.488;2023-12-20T13:41:24;4.30;99.90
22633;DHT22;11483;55.828;37.488;2023-12-20T13:43:50;4.40;99.90
22633;DHT22;11483;55.828;37.488;2023-12-20T13:46:16;4.30;99.90
22633;DHT22;11483;55.828;37.488;2023-12-20T13:48:42;4.40;99.90
22633;DHT22;11483;55.828;37.488;2023-12-20T13:51:08;4.30;99.90
22633;DHT22;11483;55.828;37.488;2023-12-20T13:53:34;4.30;99.90
22633;DHT22;11483;55.828;37.488;2023-12-20T13:56:00;4.40;99.90
22633;DHT22;11483;55.828;37.488;2023-12-20T13:58:26;4.40;99.90
22633;DHT22;11483;55.828;37.488;2023-12-20T14:00:52;4.50;99.90
22633;DHT22;11483;55.828;37.488;2023-12-20T14:03:18;4.50;99.90
22633;DHT22;11483;55.828;37.488;2023-12-20T14:05:45;4.40;99.90
22633;DHT22;11483;55.828;37.488;2023-12-20T14:08:11;4.40;99.90
22633;DHT22;11483;55.828;37.488;2023-12-20T14:10:37;4.30;99.90
22633;DHT22;11483;55.828;37.488;2023-12-20T14:13:04;4.30;99.90
22633;DHT22;11483;55.828;37.488;2023-12-20T14:15:31;4.30;99.90
22633;DHT22;11483;55.828;37.488;2023-12-20T14:18:04;4.30;99.90
22633;DHT22;11483;55.828;37.488;2023-12-20T14:20:31;4.30;99.90
22633;DHT22;11483;55.828;37.488;2023-12-20T14:23:01;4.30;99.90
22633;DHT22;11483;55.828;37.488;2023-12-20T14:25:27;4.30;99.90
22633;DHT22;11483;55.828;37.488;2023-12-20T14:27:53;4.30;99.90
22633;DHT22;11483;55.828;37.488;2023-12-20T14:30:19;4.30;99.90
22633;DHT22;11483;55.828;37.488;2023-12-20T14:32:45;4.30;99.90
22633;DHT22;11483;55.828;37.488;2023-12-20T14:35:11;4.30;99.90
22633;DHT22;11483;55.828;37.488;2023-12-20T14:37:37;4.30;99.90
22633;DHT22;11483;55.828;37.488;2023-12-20T14:40:06;4.40;99.90
22633;DHT22;11483;55.828;37.488;2023-12-20T14:42:36;4.40;99.90
22633;DHT22;11483;55.828;37.488;2023-12-20T14:45:02;4.40;99.90
22633;DHT22;11483;55.828;37.488;2023-12-20T14:47:28;4.40;99.90
22633;DHT22;11483;55.828;37.488;2023-12-20T14:49:54;4.40;99.90
22633;DHT22;11483;55.828;37.488;2023-12-20T14:52:20;4.40;99.90
22633;DHT22;11483;55.828;37.488;2023-12-20T14:54:46;4.40;99.90
22633;DHT22;11483;55.828;37.488;2023-12-20T14:57:12;4.40;99.90
22633;DHT22;11483;55.828;37.488;2023-12-20T14:59:38;4.40;99.90
22633;DHT22;11483;55.828;37.488;2023-12-20T15:02:04;4.40;99.90
22633;DHT22;11483;55.828;37.488;2023-12-20T15:04:31;4.40;99.90
22633;DHT22;11483;55.828;37.488;2023-12-20T15:06:57;4.40;99.90
22633;DHT22;11483;55.828;37.488;2023-12-20T15:09:23;4.30;99.90
22633;DHT22;11483;55.828;37.488;2023-12-20T15:11:50;4.30;99.90
22633;DHT22;11483;55.828;37.488;2023-12-20T15:14:16;4.30;99.90
22633;DHT22;11483;55.828;37.488;2023-12-20T15:16:45;4.30;99.90
22633;DHT22;11483;55.828;37.488;2023-12-20T15:19:14;4.20;99.90
22633;DHT22;11483;55.828;37.488;2023-12-20T15:21:41;4.30;99.90
22633;DHT22;11483;55.828;37.488;2023-12-20T15:24:11;4.30;99.90
22633;DHT22;11483;55.828;37.488;2023-12-20T15:26:53;4.30;99.90
22633;DHT22;11483;55.828;37.488;2023-12-20T15:29:19;4.30;99.90